LEJR Airport Information

Runway Information
Runway 02 Length 7546 ft width 148 ft
Elevation 68 ft Threshold 0 ft Heading 21
Runway 20 Length 7546 ft Width 148 ft
Elevation 93 ft Threshold 0 ft Heading 201
Airport Frequencies
Type APP Name APP Frequency 128.5 MHZ
Type GND Name GND Frequency 121.6 MHZ
Type TWR Name TWR Frequency 118.55 MHZ
Airport Navaids
Type NDB Name Jerez Frequency 433 KHZ
Type VOR-DME Name Jerez Frequency 113000 KHZ
Airport Weather Information & NOTAM
ADDS - METARS form results

(1327 UTC 23 May 2022)
Data provider http://aviationweather.gov/metar/data/
 
METAR text: LEJR 231300Z 24006KT 190V300 9999 FEW020 29/17 Q1012
Conditions at: LEJR (JEREZ (CIV/MIL) , ES) observed 1300 UTC 23 May 2022
Temperature: 29.0°C (84°F)
Dewpoint: 17.0°C (63°F) [RH = 48%]
Pressure (altimeter): 29.88 inches Hg (1012.0 mb)
Winds: from the WSW (240 degrees) at 7 MPH (6 knots; 3.1 m/s)
Visibility: 6 or more miles (10+ km)
Ceiling: at least 12,000 feet AGL
Clouds: few clouds at 2000 feet AGL
Weather: no significant weather observed at this time

METAR text: LEJR 231230Z VRB03KT 9999 FEW020 28/15 Q1013
Conditions at: LEJR (JEREZ (CIV/MIL) , ES) observed 1230 UTC 23 May 2022
Temperature: 28.0°C (82°F)
Dewpoint: 15.0°C (59°F) [RH = 45%]
Pressure (altimeter): 29.91 inches Hg (1013.0 mb)
Winds: variable direction winds at 3 MPH (3 knots; 1.5 m/s)
Visibility: 6 or more miles (10+ km)
Ceiling: at least 12,000 feet AGL
Clouds: few clouds at 2000 feet AGL
Weather: no significant weather observed at this time

Forecast for: LEJR (JEREZ (CIV/MIL) , ES)
Text: TAF LEJR 230800Z 2309/2409 VRB02KT CAVOK TX30/2315Z TN15/2406Z
Forecast period: 0900 to 1000 UTC 23 May 2022
Forecast type: FROM: standard forecast or significant change
Winds: variable direction winds at 2 MPH (2 knots; 1.0 m/s)
Visibility: 6 or more miles (10+ km)
Ceiling: unknown
Clouds: missing
Weather: no significant weather forecast for this period
Text: BECMG 2310/2312 27010KT
Forecast period: 1000 to 1900 UTC 23 May 2022
Forecast type: BECOMING: Conditions expected to become as follows by 1200 UTC 23 May 2022
Winds: from the W (270 degrees) at 12 MPH (10 knots; 5.1 m/s)
Visibility: 6 or more miles (10+ km)
Ceiling: unknown
Clouds: missing
Weather: no significant weather forecast for this period
Text: BECMG 2319/2321 18005KT
Forecast period: 1900 UTC 23 May 2022 to 0900 UTC 24 May 2022
Forecast type: BECOMING: Conditions expected to become as follows by 2100 UTC 23 May 2022
Winds: from the S (180 degrees) at 6 MPH (5 knots; 2.6 m/s)
Visibility: 6 or more miles (10+ km)
Ceiling: unknown
Clouds: missing
Weather: no significant weather forecast for this period